Time;durP1;ratioP1;P1;durP2;ratioP2;P2;SDS_P1;SDS_P2;PMS_P1;PMS_P2;Temp;Humidity;BMP_temperature;BMP_pressure;BME280_temperature;BME280_humidity;BME280_pressure;Samples;Min_cycle;Max_cycle;Signal;HPM_P1;HPM_P2
2021/04/08 00:04:46;;;;;;;;;;;1.70;99.90;;;;;;10488365;28;20334;-67
2021/04/08 00:09:48;;;;;;;;;;;1.70;99.90;;;;;;10489548;28;20539;-67
2021/04/08 00:14:49;;;;;;;;;;;1.80;99.90;;;;;;10488030;28;19927;-67
2021/04/08 00:19:50;;;;;;;;;;;1.80;99.90;;;;;;10489110;28;20023;-67
2021/04/08 00:24:52;;;;;;;;;;;1.70;99.90;;;;;;10487627;28;20692;-67
2021/04/08 00:29:53;;;;;;;;;;;1.60;99.90;;;;;;10488208;28;20384;-67
2021/04/08 00:34:55;;;;;;;;;;;1.60;99.90;;;;;;10487686;28;20295;-67
2021/04/08 00:39:57;;;;;;;;;;;1.70;99.90;;;;;;10487891;28;19963;-67
2021/04/08 00:44:58;;;;;;;;;;;1.80;99.90;;;;;;10471879;28;19930;-67
2021/04/08 00:49:59;;;;;;;;;;;1.90;99.90;;;;;;10488408;28;20007;-67
2021/04/08 00:55:00;;;;;;;;;;;1.90;99.90;;;;;;10487185;28;19993;-67
2021/04/08 01:00:05;;;;;;;;;;;1.80;99.90;;;;;;10487511;28;20015;-67
2021/04/08 01:05:07;;;;;;;;;;;1.70;99.90;;;;;;10486818;28;20283;-67
2021/04/08 01:10:09;;;;;;;;;;;1.70;99.90;;;;;;10486410;28;19920;-67
2021/04/08 01:15:10;;;;;;;;;;;1.70;99.90;;;;;;10486478;28;19931;-67
2021/04/08 01:20:15;;;;;;;;;;;1.70;99.90;;;;;;10486168;28;20015;-68
2021/04/08 01:25:35;;;;;;;;;;;1.80;99.90;;;;;;10486672;28;19927;-67
2021/04/08 01:30:49;;;;;;;;;;;1.80;99.90;;;;;;10486769;28;19921;-67
2021/04/08 01:35:52;;;;;;;;;;;1.80;99.90;;;;;;10485970;28;19927;-67
2021/04/08 01:40:54;;;;;;;;;;;1.40;99.90;;;;;;10485835;28;20475;-67
2021/04/08 01:45:57;;;;;;;;;;;1.40;99.90;;;;;;10485364;28;19920;-67
2021/04/08 01:51:00;;;;;;;;;;;1.40;99.90;;;;;;10485089;28;19924;-67
2021/04/08 01:56:01;;;;;;;;;;;1.30;99.90;;;;;;10485991;28;20430;-67
2021/04/08 02:01:03;;;;;;;;;;;1.10;99.90;;;;;;10486596;28;20007;-67
2021/04/08 02:06:07;;;;;;;;;;;1.00;99.90;;;;;;10493951;28;19921;-67
2021/04/08 02:11:09;;;;;;;;;;;0.90;99.90;;;;;;10493914;28;20019;-67
2021/04/08 02:16:16;;;;;;;;;;;0.90;99.90;;;;;;10500459;28;20348;-67
2021/04/08 02:21:19;;;;;;;;;;;0.90;99.90;;;;;;10501954;28;19982;-67
2021/04/08 02:26:20;;;;;;;;;;;0.90;99.90;;;;;;10501139;28;19960;-67
2021/04/08 02:31:22;;;;;;;;;;;1.00;99.90;;;;;;10501157;28;19952;-67
2021/04/08 02:36:23;;;;;;;;;;;1.10;99.90;;;;;;10501767;28;19927;-68
2021/04/08 02:41:25;;;;;;;;;;;1.20;99.90;;;;;;10500502;28;20015;-67
2021/04/08 02:46:26;;;;;;;;;;;1.10;99.90;;;;;;10500426;28;19967;-67
2021/04/08 02:51:31;;;;;;;;;;;1.00;99.90;;;;;;10499506;28;19947;-67
2021/04/08 02:56:34;;;;;;;;;;;1.00;99.90;;;;;;10500667;28;19920;-67
2021/04/08 03:01:48;;;;;;;;;;;0.90;99.90;;;;;;10498936;28;20360;-67
2021/04/08 03:06:50;;;;;;;;;;;0.90;99.90;;;;;;10494201;28;19927;-67
2021/04/08 03:11:52;;;;;;;;;;;0.90;99.90;;;;;;10493012;28;19924;-67
2021/04/08 03:16:57;;;;;;;;;;;1.10;99.90;;;;;;10493066;28;19963;-67
2021/04/08 03:21:58;;;;;;;;;;;1.10;99.90;;;;;;10492384;28;19921;-67
2021/04/08 03:27:00;;;;;;;;;;;1.10;99.90;;;;;;10491252;28;19946;-67
2021/04/08 03:32:01;;;;;;;;;;;1.10;99.90;;;;;;10492700;28;20014;-67
2021/04/08 03:37:04;;;;;;;;;;;1.30;99.90;;;;;;10492312;28;19948;-67
2021/04/08 03:42:06;;;;;;;;;;;1.30;99.90;;;;;;10491067;28;20511;-67
2021/04/08 03:47:07;;;;;;;;;;;1.30;99.90;;;;;;10491552;28;20445;-67
2021/04/08 03:52:10;;;;;;;;;;;1.30;99.90;;;;;;10491061;28;20285;-67
2021/04/08 03:57:13;;;;;;;;;;;1.30;99.90;;;;;;10490261;28;19920;-67
2021/04/08 04:02:15;;;;;;;;;;;1.20;99.90;;;;;;10491226;28;19920;-67
2021/04/08 04:07:17;;;;;;;;;;;1.10;99.90;;;;;;10490182;28;19920;-67
2021/04/08 04:12:18;;;;;;;;;;;1.10;99.90;;;;;;10490537;28;20015;-67
2021/04/08 04:17:23;;;;;;;;;;;1.10;99.90;;;;;;10490412;28;20023;-67
2021/04/08 04:22:24;;;;;;;;;;;1.00;99.90;;;;;;10490249;28;19924;-67
2021/04/08 04:27:26;;;;;;;;;;;1.00;99.90;;;;;;10487892;28;20007;-67
2021/04/08 04:32:27;;;;;;;;;;;0.90;99.90;;;;;;10488222;28;19928;-67
2021/04/08 04:37:28;;;;;;;;;;;0.90;99.90;;;;;;10489062;28;19920;-67
2021/04/08 04:42:30;;;;;;;;;;;1.00;99.90;;;;;;10487829;28;20447;-67
2021/04/08 04:47:31;;;;;;;;;;;1.00;99.90;;;;;;10488597;28;20438;-67
2021/04/08 04:52:33;;;;;;;;;;;1.10;99.90;;;;;;10487636;28;20356;-67
2021/04/08 04:57:34;;;;;;;;;;;1.10;99.90;;;;;;10487504;28;20635;-67
2021/04/08 05:02:36;;;;;;;;;;;1.20;99.90;;;;;;10488626;28;19960;-67
2021/04/08 05:07:37;;;;;;;;;;;1.10;99.90;;;;;;10488107;28;20053;-67
2021/04/08 05:12:38;;;;;;;;;;;1.20;99.90;;;;;;10488195;28;20000;-67
2021/04/08 05:17:39;;;;;;;;;;;1.20;99.90;;;;;;10488083;28;19924;-67
2021/04/08 05:22:41;;;;;;;;;;;1.30;99.90;;;;;;10487573;28;19927;-67
2021/04/08 05:27:42;;;;;;;;;;;1.30;99.90;;;;;;10486562;28;19974;-67
2021/04/08 05:32:43;;;;;;;;;;;1.20;99.90;;;;;;10487984;28;20357;-67
2021/04/08 05:37:45;;;;;;;;;;;1.30;99.90;;;;;;10487081;28;19954;-67
2021/04/08 05:42:46;;;;;;;;;;;1.30;99.90;;;;;;10487061;28;19967;-67
2021/04/08 05:47:48;;;;;;;;;;;1.30;99.90;;;;;;10486949;28;19986;-67
2021/04/08 05:52:50;;;;;;;;;;;1.40;99.90;;;;;;10485830;28;19924;-67
2021/04/08 05:57:51;;;;;;;;;;;1.50;99.90;;;;;;10485256;28;20698;-68
2021/04/08 06:02:54;;;;;;;;;;;1.60;99.90;;;;;;10486789;28;20349;-67
2021/04/08 06:07:55;;;;;;;;;;;1.60;99.90;;;;;;10478980;28;19973;-67
2021/04/08 06:12:56;;;;;;;;;;;1.70;99.90;;;;;;10487141;28;20357;-68
2021/04/08 06:17:58;;;;;;;;;;;1.60;99.90;;;;;;10467918;28;19972;-67
2021/04/08 06:22:59;;;;;;;;;;;1.80;99.90;;;;;;10486472;28;20507;-68
2021/04/08 06:28:02;;;;;;;;;;;1.70;99.90;;;;;;10485944;28;20520;-68
2021/04/08 06:33:04;;;;;;;;;;;1.70;99.90;;;;;;10486466;28;19960;-67
2021/04/08 06:38:06;;;;;;;;;;;2.00;99.90;;;;;;10486300;28;19975;-67
2021/04/08 06:43:09;;;;;;;;;;;2.10;99.90;;;;;;10486370;28;19920;-67
2021/04/08 06:48:29;;;;;;;;;;;2.30;99.90;;;;;;10484393;28;19979;-68
2021/04/08 06:53:31;;;;;;;;;;;2.40;99.90;;;;;;10484876;28;19924;-68
2021/04/08 06:58:32;;;;;;;;;;;2.70;99.90;;;;;;10486438;28;19956;-67
2021/04/08 07:03:49;;;;;;;;;;;3.30;99.90;;;;;;10493349;28;19924;-67
2021/04/08 07:08:50;;;;;;;;;;;3.40;99.90;;;;;;10479516;28;19931;-68
2021/04/08 07:13:52;;;;;;;;;;;3.80;99.90;;;;;;10490798;28;20439;-68
2021/04/08 07:18:54;;;;;;;;;;;4.20;99.90;;;;;;10490007;28;19955;-68
2021/04/08 07:24:06;;;;;;;;;;;4.60;99.90;;;;;;10490554;28;19924;-68
2021/04/08 07:29:07;;;;;;;;;;;4.80;99.90;;;;;;10490896;28;20544;-68
2021/04/08 07:34:09;;;;;;;;;;;5.20;99.90;;;;;;10489898;28;20037;-68
2021/04/08 07:39:15;;;;;;;;;;;5.40;99.30;;;;;;10489561;28;20439;-68
2021/04/08 07:44:16;;;;;;;;;;;5.70;95.80;;;;;;10490091;28;19964;-68
2021/04/08 07:49:25;;;;;;;;;;;5.70;97.20;;;;;;10489315;28;20364;-68
2021/04/08 07:54:26;;;;;;;;;;;5.80;94.20;;;;;;10459087;28;19966;-68
2021/04/08 07:59:28;;;;;;;;;;;5.60;94.40;;;;;;10484232;28;19927;-68
2021/04/08 08:04:31;;;;;;;;;;;5.60;93.80;;;;;;10481853;28;19931;-68
2021/04/08 08:09:32;;;;;;;;;;;5.70;92.30;;;;;;10470802;28;19930;-61
2021/04/08 08:14:35;;;;;;;;;;;6.10;92.60;;;;;;10488090;28;20023;-61
2021/04/08 08:19:37;;;;;;;;;;;6.70;91.10;;;;;;10488216;28;19920;-61
2021/04/08 08:24:50;;;;;;;;;;;7.30;85.60;;;;;;10488015;28;20022;-61
2021/04/08 08:29:56;;;;;;;;;;;7.10;76.20;;;;;;10487470;28;20390;-61
2021/04/08 08:34:57;;;;;;;;;;;7.70;74.50;;;;;;10488131;28;19924;-61
2021/04/08 08:39:59;;;;;;;;;;;7.60;68.40;;;;;;10479338;28;20007;-61
2021/04/08 08:45:01;;;;;;;;;;;7.10;64.40;;;;;;10487537;28;20454;-61
2021/04/08 08:50:16;;;;;;;;;;;6.40;65.80;;;;;;10487005;28;19924;-61
2021/04/08 08:55:19;;;;;;;;;;;6.80;64.10;;;;;;10486426;28;19998;-61
2021/04/08 09:00:21;;;;;;;;;;;7.20;62.20;;;;;;10483685;28;20007;-61
2021/04/08 09:05:25;;;;;;;;;;;7.10;62.10;;;;;;10467182;28;20021;-61
2021/04/08 09:10:31;;;;;;;;;;;6.90;59.40;;;;;;10482547;28;19994;-61
2021/04/08 09:15:34;;;;;;;;;;;6.60;58.30;;;;;;10487322;28;19931;-61
2021/04/08 09:20:37;;;;;;;;;;;6.60;57.70;;;;;;10486349;28;20057;-61
2021/04/08 09:25:56;;;;;;;;;;;6.80;56.90;;;;;;10486557;28;19967;-61
2021/04/08 09:31:04;;;;;;;;;;;6.90;58.50;;;;;;10492767;28;20372;-61
2021/04/08 09:36:18;;;;;;;;;;;6.70;57.20;;;;;;10484708;28;20015;-61
2021/04/08 09:41:38;;;;;;;;;;;6.60;58.70;;;;;;10485526;28;19955;-61
2021/04/08 09:46:44;;;;;;;;;;;6.30;59.00;;;;;;10486278;28;19964;-61
2021/04/08 09:51:58;;;;;;;;;;;6.50;59.00;;;;;;10483286;28;19970;-61
2021/04/08 09:56:59;;;;;;;;;;;6.70;59.00;;;;;;10484062;28;20004;-61
2021/04/08 10:02:01;;;;;;;;;;;6.60;56.80;;;;;;10484624;28;20014;-61
2021/04/08 10:07:04;;;;;;;;;;;6.60;57.90;;;;;;10483380;28;19932;-61
2021/04/08 10:12:05;;;;;;;;;;;6.20;56.90;;;;;;10465119;28;19963;-61
2021/04/08 10:17:10;;;;;;;;;;;5.90;57.40;;;;;;10478633;28;20035;-61
2021/04/08 10:22:13;;;;;;;;;;;5.70;58.20;;;;;;10479737;28;19920;-61
2021/04/08 10:27:20;;;;;;;;;;;5.80;58.20;;;;;;10485582;28;20416;-61
2021/04/08 10:32:31;;;;;;;;;;;5.90;58.20;;;;;;10486854;28;19924;-61
2021/04/08 10:37:32;;;;;;;;;;;6.10;59.40;;;;;;10494306;28;19931;-61
2021/04/08 10:42:34;;;;;;;;;;;6.40;59.00;;;;;;10494559;28;20011;-61
2021/04/08 10:47:37;;;;;;;;;;;6.80;57.70;;;;;;10494556;28;19927;-61
2021/04/08 10:52:39;;;;;;;;;;;7.10;58.10;;;;;;10492720;28;20378;-61
2021/04/08 10:57:41;;;;;;;;;;;7.70;55.90;;;;;;10493248;28;20400;-61
2021/04/08 11:02:44;;;;;;;;;;;7.70;55.30;;;;;;10493581;28;19920;-61
2021/04/08 11:07:48;;;;;;;;;;;8.00;54.20;;;;;;10492944;28;19970;-61
2021/04/08 11:12:51;;;;;;;;;;;7.80;52.70;;;;;;10482816;28;19928;-61
2021/04/08 11:18:06;;;;;;;;;;;8.00;53.10;;;;;;10489223;28;19921;-61
2021/04/08 11:23:09;;;;;;;;;;;8.00;50.50;;;;;;10492132;28;19921;-62
2021/04/08 11:28:11;;;;;;;;;;;8.30;50.70;;;;;;10490747;28;20018;-61
2021/04/08 11:33:14;;;;;;;;;;;7.90;51.50;;;;;;10486145;28;19924;-61
2021/04/08 11:38:17;;;;;;;;;;;8.00;51.30;;;;;;10487898;28;20003;-61
2021/04/08 11:43:20;;;;;;;;;;;8.50;51.10;;;;;;10491558;28;19927;-61
2021/04/08 11:48:24;;;;;;;;;;;9.00;49.10;;;;;;10491011;28;20362;-61
2021/04/08 11:53:33;;;;;;;;;;;9.20;48.20;;;;;;10472786;28;20019;-61
2021/04/08 11:58:35;;;;;;;;;;;8.60;47.60;;;;;;10490691;28;19982;-61
2021/04/08 12:03:38;;;;;;;;;;;8.80;48.50;;;;;;10489402;28;20360;-61
2021/04/08 12:08:51;;;;;;;;;;;8.40;46.40;;;;;;10480007;28;19924;-61
2021/04/08 12:14:02;;;;;;;;;;;8.70;46.80;;;;;;10470799;28;19924;-61
2021/04/08 12:19:04;;;;;;;;;;;9.20;47.50;;;;;;10480953;28;19928;-61
2021/04/08 12:24:06;;;;;;;;;;;8.80;45.30;;;;;;10485328;28;20025;-61
2021/04/08 12:29:08;;;;;;;;;;;9.00;45.50;;;;;;10486431;28;19927;-61
2021/04/08 12:34:09;;;;;;;;;;;8.70;46.60;;;;;;10487818;28;19967;-61
2021/04/08 12:39:11;;;;;;;;;;;8.40;47.00;;;;;;10478608;28;19963;-61
2021/04/08 12:44:12;;;;;;;;;;;8.10;46.50;;;;;;10460455;28;19982;-61
2021/04/08 12:49:14;;;;;;;;;;;8.60;46.90;;;;;;10477678;28;20372;-61
2021/04/08 12:54:15;;;;;;;;;;;8.80;45.60;;;;;;10503359;28;20014;-61
2021/04/08 12:59:16;;;;;;;;;;;9.40;46.40;;;;;;10493832;28;20396;-61
2021/04/08 13:04:18;;;;;;;;;;;9.40;44.40;;;;;;10485065;28;19931;-61
2021/04/08 13:09:19;;;;;;;;;;;9.50;43.50;;;;;;10481653;28;19963;-61
2021/04/08 13:14:20;;;;;;;;;;;9.40;44.50;;;;;;10470127;28;20379;-61
2021/04/08 13:19:23;;;;;;;;;;;9.30;44.60;;;;;;10471028;28;19963;-61
2021/04/08 13:24:25;;;;;;;;;;;9.40;44.80;;;;;;10481306;28;20250;-62
2021/04/08 13:29:26;;;;;;;;;;;9.60;44.40;;;;;;10490465;28;20011;-62
2021/04/08 13:34:27;;;;;;;;;;;10.00;43.80;;;;;;10486412;28;19959;-62
2021/04/08 13:39:29;;;;;;;;;;;10.30;43.70;;;;;;10482845;28;19992;-62
2021/04/08 13:44:30;;;;;;;;;;;10.10;42.90;;;;;;10485393;28;20146;-62
2021/04/08 13:49:31;;;;;;;;;;;9.60;44.30;;;;;;10480305;28;20023;-62
2021/04/08 13:54:34;;;;;;;;;;;9.80;43.90;;;;;;10486454;28;19971;-62
2021/04/08 13:59:35;;;;;;;;;;;10.30;44.10;;;;;;10486689;28;19920;-62
2021/04/08 14:04:37;;;;;;;;;;;10.50;42.30;;;;;;10487109;28;19920;-62
2021/04/08 14:09:39;;;;;;;;;;;10.50;43.20;;;;;;10490633;28;20028;-62
2021/04/08 14:14:41;;;;;;;;;;;10.20;43.20;;;;;;10490988;28;20329;-62
2021/04/08 14:19:42;;;;;;;;;;;9.80;43.70;;;;;;10490165;28;20007;-62
2021/04/08 14:24:44;;;;;;;;;;;9.30;43.60;;;;;;10492129;28;19982;-61
2021/04/08 14:29:45;;;;;;;;;;;9.40;43.90;;;;;;10490077;28;20386;-62
2021/04/08 14:34:46;;;;;;;;;;;9.40;43.90;;;;;;10491975;28;20103;-62
2021/04/08 14:39:48;;;;;;;;;;;9.30;44.40;;;;;;10493791;28;19956;-62
2021/04/08 14:44:49;;;;;;;;;;;9.00;43.50;;;;;;10492498;28;20357;-62
2021/04/08 14:49:50;;;;;;;;;;;9.40;43.10;;;;;;10492215;28;20441;-62
2021/04/08 14:54:52;;;;;;;;;;;9.50;43.30;;;;;;10491610;28;20042;-62
2021/04/08 14:59:53;;;;;;;;;;;9.30;44.20;;;;;;10499098;28;20027;-62
2021/04/08 15:04:54;;;;;;;;;;;9.50;42.90;;;;;;10494833;28;20015;-62
2021/04/08 15:09:55;;;;;;;;;;;9.50;42.50;;;;;;10487515;28;20295;-62
2021/04/08 15:14:57;;;;;;;;;;;9.40;44.00;;;;;;10488301;28;20366;-62
2021/04/08 15:19:59;;;;;;;;;;;9.60;43.10;;;;;;10490538;28;19920;-62
2021/04/08 15:25:00;;;;;;;;;;;9.60;43.40;;;;;;10490782;28;20003;-62
2021/04/08 15:30:03;;;;;;;;;;;9.60;43.10;;;;;;10484794;28;19971;-62
2021/04/08 15:35:06;;;;;;;;;;;9.70;43.20;;;;;;10489071;28;19971;-62
2021/04/08 15:40:08;;;;;;;;;;;10.00;42.70;;;;;;10489222;28;20065;-62
2021/04/08 15:45:10;;;;;;;;;;;9.90;43.40;;;;;;10489478;28;19920;-62
2021/04/08 15:50:12;;;;;;;;;;;10.20;42.80;;;;;;10489625;28;19971;-62
2021/04/08 15:55:16;;;;;;;;;;;10.40;41.70;;;;;;10490785;28;19971;-62
2021/04/08 16:00:18;;;;;;;;;;;10.30;42.30;;;;;;10490223;28;20432;-61
2021/04/08 16:05:20;;;;;;;;;;;10.10;42.30;;;;;;10493920;28;20011;-61
2021/04/08 16:10:21;;;;;;;;;;;10.00;42.90;;;;;;10491061;28;19956;-62
2021/04/08 16:15:22;;;;;;;;;;;10.10;41.70;;;;;;10489821;28;19970;-61
2021/04/08 16:20:23;;;;;;;;;;;9.80;42.10;;;;;;10489860;28;20011;-62
2021/04/08 16:25:25;;;;;;;;;;;9.50;42.60;;;;;;10489740;28;20303;-62
2021/04/08 16:30:46;;;;;;;;;;;9.30;42.70;;;;;;10487606;28;19927;-61
2021/04/08 16:35:48;;;;;;;;;;;9.10;43.90;;;;;;10489704;28;19924;-61
2021/04/08 16:40:49;;;;;;;;;;;9.20;43.90;;;;;;10489192;28;20102;-61
2021/04/08 16:45:52;;;;;;;;;;;9.40;43.60;;;;;;10475469;28;19920;-61
2021/04/08 16:50:54;;;;;;;;;;;9.50;43.20;;;;;;10479067;28;19972;-61
2021/04/08 16:55:55;;;;;;;;;;;9.30;44.60;;;;;;10488221;28;19999;-61
2021/04/08 17:00:56;;;;;;;;;;;9.10;44.50;;;;;;10483846;28;19931;-61
2021/04/08 17:05:58;;;;;;;;;;;9.00;44.80;;;;;;10487748;28;20327;-62
2021/04/08 17:10:59;;;;;;;;;;;8.70;44.60;;;;;;10487264;28;20373;-61
2021/04/08 17:16:00;;;;;;;;;;;8.20;46.30;;;;;;10487108;28;20365;-62
2021/04/08 17:21:02;;;;;;;;;;;8.00;46.70;;;;;;10486823;28;20390;-62
2021/04/08 17:26:03;;;;;;;;;;;7.80;46.20;;;;;;10487682;28;19920;-61
2021/04/08 17:31:05;;;;;;;;;;;7.70;46.60;;;;;;10487167;28;20012;-61
2021/04/08 17:36:07;;;;;;;;;;;7.70;47.10;;;;;;10487628;28;20467;-62
2021/04/08 17:41:08;;;;;;;;;;;7.70;47.80;;;;;;10487565;28;19963;-62
2021/04/08 17:46:11;;;;;;;;;;;7.60;47.90;;;;;;10485434;28;19924;-62
2021/04/08 17:51:14;;;;;;;;;;;7.60;47.90;;;;;;10486816;28;20065;-61
2021/04/08 17:56:15;;;;;;;;;;;7.40;47.00;;;;;;10487502;28;19964;-62
2021/04/08 18:01:17;;;;;;;;;;;7.20;49.10;;;;;;10482052;28;19956;-61
2021/04/08 18:06:20;;;;;;;;;;;7.00;50.20;;;;;;10481086;28;20353;-62
2021/04/08 18:11:21;;;;;;;;;;;6.80;50.40;;;;;;10484584;28;20324;-61
2021/04/08 18:16:23;;;;;;;;;;;6.60;51.20;;;;;;10485179;28;19974;-61
2021/04/08 18:21:25;;;;;;;;;;;6.40;52.20;;;;;;10487443;28;20004;-61
2021/04/08 18:26:26;;;;;;;;;;;6.20;52.10;;;;;;10484854;28;19963;-61
2021/04/08 18:31:27;;;;;;;;;;;6.00;53.00;;;;;;10485899;28;20023;-61
2021/04/08 18:36:30;;;;;;;;;;;5.80;55.20;;;;;;10486286;28;20288;-61
2021/04/08 18:41:31;;;;;;;;;;;5.70;55.40;;;;;;10485480;28;19982;-61
2021/04/08 18:46:33;;;;;;;;;;;5.50;56.40;;;;;;10485181;28;19985;-67
2021/04/08 18:51:35;;;;;;;;;;;5.40;57.20;;;;;;10465119;28;20384;-67
2021/04/08 18:56:36;;;;;;;;;;;5.10;57.00;;;;;;10472391;28;19970;-67
2021/04/08 19:01:37;;;;;;;;;;;5.00;59.20;;;;;;10489011;28;19989;-68
2021/04/08 19:06:39;;;;;;;;;;;4.90;61.00;;;;;;10508801;28;19963;-67
2021/04/08 19:11:41;;;;;;;;;;;4.80;61.60;;;;;;10498215;28;19969;-67
2021/04/08 19:16:42;;;;;;;;;;;4.70;62.40;;;;;;10488458;28;20045;-67
2021/04/08 19:21:44;;;;;;;;;;;4.70;63.20;;;;;;10489512;28;19924;-67
2021/04/08 19:26:45;;;;;;;;;;;4.60;65.20;;;;;;10490565;28;19927;-67
2021/04/08 19:31:46;;;;;;;;;;;4.50;64.70;;;;;;10480616;28;19925;-68
2021/04/08 19:36:47;;;;;;;;;;;4.30;67.20;;;;;;10487286;28;20274;-67
2021/04/08 19:41:49;;;;;;;;;;;4.20;67.50;;;;;;10486527;28;19971;-68
2021/04/08 19:46:50;;;;;;;;;;;4.00;67.20;;;;;;10482700;28;20019;-68
2021/04/08 19:51:51;;;;;;;;;;;3.90;71.90;;;;;;10464686;28;20350;-67
2021/04/08 19:56:53;;;;;;;;;;;3.80;72.70;;;;;;10490819;28;20015;-67
2021/04/08 20:01:54;;;;;;;;;;;3.70;72.50;;;;;;10478724;28;20007;-67
2021/04/08 20:06:55;;;;;;;;;;;3.60;74.00;;;;;;10489885;28;19928;-67
2021/04/08 20:11:58;;;;;;;;;;;3.50;77.80;;;;;;10489763;28;19920;-67
2021/04/08 20:17:00;;;;;;;;;;;3.30;79.80;;;;;;10489760;28;19920;-67
2021/04/08 20:22:02;;;;;;;;;;;3.30;83.20;;;;;;10489266;28;19925;-67
2021/04/08 20:27:04;;;;;;;;;;;3.30;84.00;;;;;;10488956;28;20007;-67
2021/04/08 20:32:05;;;;;;;;;;;3.20;88.00;;;;;;10488262;28;20015;-67
2021/04/08 20:37:07;;;;;;;;;;;3.10;87.50;;;;;;10489393;28;19920;-67
2021/04/08 20:42:09;;;;;;;;;;;3.10;90.50;;;;;;10487261;28;19982;-67
2021/04/08 20:47:10;;;;;;;;;;;3.00;91.60;;;;;;10488059;28;19924;-67
2021/04/08 20:52:11;;;;;;;;;;;3.00;92.70;;;;;;10487693;28;19921;-67
2021/04/08 20:57:13;;;;;;;;;;;3.00;94.40;;;;;;10487709;28;19932;-67
2021/04/08 21:02:14;;;;;;;;;;;2.80;94.00;;;;;;10487564;28;19921;-67
2021/04/08 21:07:15;;;;;;;;;;;2.70;94.90;;;;;;10487561;28;20368;-67
2021/04/08 21:12:17;;;;;;;;;;;2.60;96.00;;;;;;10486923;28;19925;-67
2021/04/08 21:17:19;;;;;;;;;;;2.60;96.60;;;;;;10485712;28;20307;-67
2021/04/08 21:22:21;;;;;;;;;;;2.50;98.20;;;;;;10486973;28;20353;-67
2021/04/08 21:27:22;;;;;;;;;;;2.50;99.70;;;;;;10486799;28;19924;-67
2021/04/08 21:32:23;;;;;;;;;;;2.50;99.90;;;;;;10485373;28;19947;-67
2021/04/08 21:37:24;;;;;;;;;;;2.40;99.90;;;;;;10486298;28;20431;-67
2021/04/08 21:42:26;;;;;;;;;;;2.20;99.90;;;;;;10486576;28;20388;-67
2021/04/08 21:47:28;;;;;;;;;;;2.10;99.90;;;;;;10486138;28;19989;-67
2021/04/08 21:52:29;;;;;;;;;;;2.00;99.90;;;;;;10485614;28;19924;-66
2021/04/08 21:57:30;;;;;;;;;;;1.90;99.90;;;;;;10485593;28;20019;-67
2021/04/08 22:02:32;;;;;;;;;;;1.90;99.90;;;;;;10485801;28;19959;-67
2021/04/08 22:07:33;;;;;;;;;;;1.90;99.90;;;;;;10485799;28;20508;-67
2021/04/08 22:12:34;;;;;;;;;;;1.80;99.90;;;;;;10485955;28;20062;-67
2021/04/08 22:17:36;;;;;;;;;;;1.70;99.90;;;;;;10485430;28;20067;-67
2021/04/08 22:22:38;;;;;;;;;;;1.60;99.90;;;;;;10485516;28;20015;-67
2021/04/08 22:27:39;;;;;;;;;;;1.50;99.90;;;;;;10485532;28;20058;-67
2021/04/08 22:32:41;;;;;;;;;;;1.40;99.90;;;;;;10491848;28;20163;-67
2021/04/08 22:37:43;;;;;;;;;;;1.50;99.90;;;;;;10493760;28;19928;-67
2021/04/08 22:42:44;;;;;;;;;;;1.50;99.90;;;;;;10492720;28;20011;-67
2021/04/08 22:47:45;;;;;;;;;;;1.40;99.90;;;;;;10491996;28;20394;-67
2021/04/08 22:52:47;;;;;;;;;;;1.40;99.90;;;;;;10491986;28;19974;-67
2021/04/08 22:57:50;;;;;;;;;;;1.30;99.90;;;;;;10489603;28;20102;-67
2021/04/08 23:02:52;;;;;;;;;;;1.10;99.90;;;;;;10490301;28;19924;-67
2021/04/08 23:08:13;;;;;;;;;;;1.10;99.90;;;;;;10490793;28;19920;-67
2021/04/08 23:13:15;;;;;;;;;;;1.10;99.90;;;;;;10490833;28;20380;-67
2021/04/08 23:18:16;;;;;;;;;;;1.10;99.90;;;;;;10491041;28;20011;-67
2021/04/08 23:23:17;;;;;;;;;;;1.20;99.90;;;;;;10489947;28;20341;-67
2021/04/08 23:28:19;;;;;;;;;;;1.00;99.90;;;;;;10490179;28;20015;-67
2021/04/08 23:33:20;;;;;;;;;;;1.10;99.90;;;;;;10490636;28;19926;-67
2021/04/08 23:38:21;;;;;;;;;;;1.10;99.90;;;;;;10489921;28;20119;-67
2021/04/08 23:43:23;;;;;;;;;;;1.10;99.90;;;;;;10481708;28;20018;-67
2021/04/08 23:48:24;;;;;;;;;;;1.10;99.90;;;;;;10486038;28;19924;-67
2021/04/08 23:53:25;;;;;;;;;;;1.00;99.90;;;;;;10487564;28;20437;-67
2021/04/08 23:58:27;;;;;;;;;;;0.90;99.90;;;;;;10500154;28;19995;-67
